Time;durP1;ratioP1;P1;durP2;ratioP2;P2;SDS_P1;SDS_P2;PMS_P1;PMS_P2;Temp;Humidity;BMP_temperature;BMP_pressure;BME280_temperature;BME280_humidity;BME280_pressure;Samples;Min_cycle;Max_cycle;Signal;HPM_P1;HPM_P2
2023/05/28 00:01:56;;;;;;;4.70;2.63;;;;;;;;;;5002493;28;20081;-61
2023/05/28 00:04:21;;;;;;;3.10;2.20;;;;;;;;;;5002555;28;20850;-61
2023/05/28 00:06:48;;;;;;;3.55;2.30;;;;;;;;;;5002385;28;20564;-61
2023/05/28 00:09:14;;;;;;;4.18;2.42;;;;;;;;;;5002288;28;20032;-60
2023/05/28 00:11:39;;;;;;;2.70;2.10;;;;;;;;;;4998984;28;20117;-61
2023/05/28 00:14:04;;;;;;;3.07;2.50;;;;;;;;;;4999257;28;20030;-61
2023/05/28 00:16:29;;;;;;;3.40;2.17;;;;;;;;;;4992047;28;20608;-61
2023/05/28 00:18:55;;;;;;;2.67;2.20;;;;;;;;;;4998328;28;20456;-61
2023/05/28 00:21:20;;;;;;;3.10;2.17;;;;;;;;;;5001917;28;20075;-60
2023/05/28 00:23:45;;;;;;;2.83;2.30;;;;;;;;;;4996139;28;20432;-58
2023/05/28 00:26:10;;;;;;;3.53;2.50;;;;;;;;;;5002920;28;20539;-60
2023/05/28 00:28:35;;;;;;;3.20;2.30;;;;;;;;;;5007983;28;20487;-60
2023/05/28 00:31:02;;;;;;;4.17;2.83;;;;;;;;;;5003427;28;20028;-60
2023/05/28 00:33:27;;;;;;;3.45;2.10;;;;;;;;;;4999172;28;20060;-60
2023/05/28 00:35:55;;;;;;;3.57;2.30;;;;;;;;;;4994791;28;20053;-60
2023/05/28 00:38:20;;;;;;;2.97;2.40;;;;;;;;;;4999707;28;20269;-60
2023/05/28 00:40:46;;;;;;;2.87;2.40;;;;;;;;;;4997190;28;20456;-61
2023/05/28 00:43:11;;;;;;;3.10;2.53;;;;;;;;;;4995974;28;20610;-60
2023/05/28 00:45:36;;;;;;;2.70;2.30;;;;;;;;;;5003124;28;20815;-60
2023/05/28 00:48:02;;;;;;;2.83;2.30;;;;;;;;;;5004351;28;20091;-60
2023/05/28 00:50:28;;;;;;;3.23;2.17;;;;;;;;;;4998871;28;20273;-60
2023/05/28 00:52:53;;;;;;;3.00;2.38;;;;;;;;;;5001769;28;20411;-61
2023/05/28 00:55:18;;;;;;;3.10;1.77;;;;;;;;;;4993424;28;20038;-60
2023/05/28 00:57:45;;;;;;;2.60;2.03;;;;;;;;;;4999062;28;20476;-60
2023/05/28 01:00:11;;;;;;;3.45;2.45;;;;;;;;;;4994848;28;20752;-61
2023/05/28 01:02:37;;;;;;;2.92;2.30;;;;;;;;;;5001633;28;20500;-60
2023/05/28 01:05:02;;;;;;;3.72;2.42;;;;;;;;;;5002542;28;20084;-61
2023/05/28 01:07:28;;;;;;;2.90;2.45;;;;;;;;;;4995032;28;20480;-61
2023/05/28 01:09:54;;;;;;;3.17;2.53;;;;;;;;;;4996520;28;20120;-61
2023/05/28 01:12:19;;;;;;;3.05;2.28;;;;;;;;;;5002537;28;20181;-60
2023/05/28 01:14:44;;;;;;;3.90;2.10;;;;;;;;;;5003254;28;20064;-60
2023/05/28 01:17:10;;;;;;;3.43;2.27;;;;;;;;;;5018679;28;20037;-59
2023/05/28 01:19:35;;;;;;;3.37;2.30;;;;;;;;;;5003580;28;20037;-59
2023/05/28 01:22:04;;;;;;;2.63;2.37;;;;;;;;;;5003870;28;20030;-59
2023/05/28 01:24:30;;;;;;;2.80;2.30;;;;;;;;;;5003398;28;20451;-60
2023/05/28 01:26:58;;;;;;;3.60;2.50;;;;;;;;;;4992984;28;20050;-59
2023/05/28 01:29:23;;;;;;;2.67;2.08;;;;;;;;;;5003517;28;20029;-59
2023/05/28 01:31:48;;;;;;;2.83;2.20;;;;;;;;;;5002436;28;20034;-60
2023/05/28 01:34:13;;;;;;;3.00;2.30;;;;;;;;;;5001013;28;20782;-60
2023/05/28 01:36:43;;;;;;;3.77;2.43;;;;;;;;;;4986480;28;20499;-59
2023/05/28 01:39:12;;;;;;;3.42;2.30;;;;;;;;;;5000742;28;20029;-60
2023/05/28 01:41:37;;;;;;;5.07;2.60;;;;;;;;;;5003796;28;20100;-59
2023/05/28 01:44:02;;;;;;;3.60;2.35;;;;;;;;;;5003759;28;20046;-61
2023/05/28 01:46:28;;;;;;;2.93;2.20;;;;;;;;;;5001747;28;20511;-61
2023/05/28 01:48:53;;;;;;;2.30;2.00;;;;;;;;;;5002087;28;20488;-61
2023/05/28 01:51:21;;;;;;;2.73;2.20;;;;;;;;;;5003642;28;20034;-61
2023/05/28 01:53:47;;;;;;;2.60;1.92;;;;;;;;;;5000064;28;20018;-60
2023/05/28 01:56:12;;;;;;;3.53;2.77;;;;;;;;;;5003117;28;20107;-60
2023/05/28 01:58:37;;;;;;;4.00;2.47;;;;;;;;;;5002657;28;20022;-60
2023/05/28 02:01:05;;;;;;;2.77;2.20;;;;;;;;;;5002758;28;20137;-59
2023/05/28 02:03:30;;;;;;;2.80;2.28;;;;;;;;;;5001910;28;20034;-59
2023/05/28 02:05:55;;;;;;;3.03;2.30;;;;;;;;;;5003067;28;20149;-60
2023/05/28 02:08:20;;;;;;;2.50;2.00;;;;;;;;;;5005817;28;20054;-59
2023/05/28 02:10:46;;;;;;;3.37;2.20;;;;;;;;;;4995520;28;20058;-59
2023/05/28 02:13:11;;;;;;;2.72;2.20;;;;;;;;;;5006703;28;20061;-59
2023/05/28 02:15:36;;;;;;;2.43;2.00;;;;;;;;;;5006717;28;20517;-59
2023/05/28 02:18:02;;;;;;;2.67;2.10;;;;;;;;;;5005218;28;20026;-59
2023/05/28 02:20:27;;;;;;;2.85;2.15;;;;;;;;;;5006520;28;20117;-59
2023/05/28 02:22:52;;;;;;;2.77;2.30;;;;;;;;;;5007431;28;20019;-59
2023/05/28 02:25:18;;;;;;;2.97;2.07;;;;;;;;;;5004305;28;20036;-61
2023/05/28 02:27:43;;;;;;;3.00;2.60;;;;;;;;;;5021254;28;20108;-60
2023/05/28 02:30:10;;;;;;;2.50;1.90;;;;;;;;;;5006603;28;20034;-60
2023/05/28 02:32:35;;;;;;;3.03;2.25;;;;;;;;;;5006936;28;20026;-60
2023/05/28 02:35:00;;;;;;;3.07;2.37;;;;;;;;;;5006356;28;20120;-61
2023/05/28 02:37:26;;;;;;;2.30;2.00;;;;;;;;;;5006172;28;20089;-60
2023/05/28 02:39:51;;;;;;;3.17;2.10;;;;;;;;;;5006493;28;20106;-60
2023/05/28 02:42:17;;;;;;;2.90;2.00;;;;;;;;;;5004108;28;20079;-60
2023/05/28 02:44:42;;;;;;;3.08;2.17;;;;;;;;;;5014214;28;20300;-61
2023/05/28 02:47:07;;;;;;;2.70;2.30;;;;;;;;;;5006265;28;20548;-61
2023/05/28 02:49:32;;;;;;;3.03;2.17;;;;;;;;;;5005051;28;20265;-61
2023/05/28 02:51:58;;;;;;;2.60;2.20;;;;;;;;;;5006825;28;20033;-60
2023/05/28 02:54:23;;;;;;;3.17;2.23;;;;;;;;;;5005734;28;20691;-59
2023/05/28 02:56:48;;;;;;;3.38;2.17;;;;;;;;;;5006318;28;20269;-60
2023/05/28 02:59:13;;;;;;;2.73;2.20;;;;;;;;;;5005064;28;20426;-59
2023/05/28 03:01:39;;;;;;;3.83;2.33;;;;;;;;;;5004729;28;20265;-60
2023/05/28 03:04:04;;;;;;;2.97;2.40;;;;;;;;;;5005561;28;20365;-60
2023/05/28 03:06:30;;;;;;;3.05;2.13;;;;;;;;;;5005633;28;20085;-60
2023/05/28 03:08:55;;;;;;;2.35;1.95;;;;;;;;;;5007412;28;20117;-60
2023/05/28 03:11:21;;;;;;;2.77;2.03;;;;;;;;;;5010265;28;20504;-59
2023/05/28 03:13:46;;;;;;;3.17;2.20;;;;;;;;;;5009671;28;20427;-59
2023/05/28 03:16:11;;;;;;;2.05;1.85;;;;;;;;;;5005419;28;20512;-59
2023/05/28 03:18:36;;;;;;;2.30;2.10;;;;;;;;;;5003548;28;20030;-59
2023/05/28 03:21:02;;;;;;;3.30;2.03;;;;;;;;;;5005083;28;20782;-60
2023/05/28 03:23:27;;;;;;;2.67;2.17;;;;;;;;;;5006009;28;20476;-59
2023/05/28 03:25:52;;;;;;;2.90;2.23;;;;;;;;;;5005154;28;20431;-62
2023/05/28 03:28:17;;;;;;;2.85;2.30;;;;;;;;;;5006240;28;20319;-60
2023/05/28 03:30:43;;;;;;;3.00;2.20;;;;;;;;;;5005655;28;20552;-60
2023/05/28 03:33:08;;;;;;;3.05;2.03;;;;;;;;;;5005455;28;20383;-59
2023/05/28 03:35:33;;;;;;;2.50;2.10;;;;;;;;;;5008120;28;20030;-60
2023/05/28 03:37:58;;;;;;;2.85;2.00;;;;;;;;;;5003430;28;20022;-59
2023/05/28 03:40:23;;;;;;;2.83;2.30;;;;;;;;;;5005246;28;20076;-59
2023/05/28 03:42:49;;;;;;;2.90;2.00;;;;;;;;;;5005497;28;20116;-60
2023/05/28 03:45:15;;;;;;;3.20;2.10;;;;;;;;;;5004392;28;20291;-59
2023/05/28 03:47:40;;;;;;;2.10;1.90;;;;;;;;;;5005467;28;20091;-60
2023/05/28 03:50:06;;;;;;;2.47;2.03;;;;;;;;;;5004735;28;20481;-59
2023/05/28 03:52:31;;;;;;;2.80;2.15;;;;;;;;;;5005792;28;20543;-59
2023/05/28 03:54:56;;;;;;;3.80;2.17;;;;;;;;;;5002791;28;20050;-59
2023/05/28 03:57:21;;;;;;;2.40;2.00;;;;;;;;;;5005044;28;20507;-59
2023/05/28 03:59:46;;;;;;;2.70;2.30;;;;;;;;;;5003464;28;20291;-59
2023/05/28 04:02:12;;;;;;;2.47;1.93;;;;;;;;;;5004867;28;20467;-60
2023/05/28 04:04:37;;;;;;;3.13;2.10;;;;;;;;;;5004560;28;20381;-59
2023/05/28 04:07:02;;;;;;;2.00;1.80;;;;;;;;;;5004483;28;20735;-59
2023/05/28 04:09:27;;;;;;;2.67;2.10;;;;;;;;;;5004091;28;20041;-59
2023/05/28 04:11:53;;;;;;;2.77;2.10;;;;;;;;;;5002600;28;20309;-60
2023/05/28 04:14:18;;;;;;;2.75;2.20;;;;;;;;;;5004143;28;20034;-60
2023/05/28 04:16:44;;;;;;;2.38;2.08;;;;;;;;;;5004896;28;20025;-59
2023/05/28 04:19:09;;;;;;;2.90;2.07;;;;;;;;;;5004725;28;20113;-59
2023/05/28 04:21:34;;;;;;;2.50;2.20;;;;;;;;;;5004596;28;20384;-60
2023/05/28 04:24:00;;;;;;;2.57;2.27;;;;;;;;;;5003341;28;20865;-59
2023/05/28 04:26:25;;;;;;;2.72;2.17;;;;;;;;;;5004419;28;20347;-59
2023/05/28 04:28:52;;;;;;;2.17;1.80;;;;;;;;;;5000475;28;20034;-59
2023/05/28 04:31:18;;;;;;;2.60;2.10;;;;;;;;;;5002241;28;20272;-60
2023/05/28 04:33:46;;;;;;;3.30;2.70;;;;;;;;;;5002641;28;20396;-60
2023/05/28 04:36:13;;;;;;;3.10;2.55;;;;;;;;;;5003967;28;20099;-60
2023/05/28 04:38:38;;;;;;;4.22;2.78;;;;;;;;;;5004245;28;20033;-59
2023/05/28 04:41:04;;;;;;;3.63;2.50;;;;;;;;;;5003425;28;20594;-59
2023/05/28 04:43:30;;;;;;;3.22;2.60;;;;;;;;;;5004052;28;20030;-59
2023/05/28 04:45:58;;;;;;;2.83;2.40;;;;;;;;;;5003500;28;20128;-59
2023/05/28 04:48:23;;;;;;;4.38;2.60;;;;;;;;;;5001328;28;20060;-60
2023/05/28 04:50:50;;;;;;;3.37;2.83;;;;;;;;;;5003884;28;20022;-59
2023/05/28 04:53:15;;;;;;;3.78;2.60;;;;;;;;;;5003904;28;20479;-59
2023/05/28 04:55:41;;;;;;;4.13;2.43;;;;;;;;;;5004030;28;20034;-61
2023/05/28 04:58:07;;;;;;;3.33;2.40;;;;;;;;;;5001987;28;20624;-58
2023/05/28 05:00:34;;;;;;;2.97;2.50;;;;;;;;;;5002929;28;20104;-59
2023/05/28 05:02:59;;;;;;;3.03;2.47;;;;;;;;;;5004427;28;20056;-61
2023/05/28 05:05:24;;;;;;;3.87;2.50;;;;;;;;;;5003532;28;20084;-60
2023/05/28 05:07:51;;;;;;;3.83;2.77;;;;;;;;;;5003169;28;20049;-59
2023/05/28 05:10:17;;;;;;;2.88;2.35;;;;;;;;;;5002936;28;20496;-59
2023/05/28 05:12:42;;;;;;;2.73;2.33;;;;;;;;;;5002906;28;20065;-59
2023/05/28 05:15:07;;;;;;;2.73;2.30;;;;;;;;;;4995127;28;20296;-59
2023/05/28 05:17:33;;;;;;;3.45;2.25;;;;;;;;;;5003406;28;20450;-60
2023/05/28 05:20:02;;;;;;;3.50;2.37;;;;;;;;;;4989378;28;20072;-59
2023/05/28 05:22:28;;;;;;;2.88;2.33;;;;;;;;;;4990168;28;20292;-59
2023/05/28 05:24:53;;;;;;;2.60;2.30;;;;;;;;;;4989034;28;20046;-59
2023/05/28 05:27:18;;;;;;;3.07;2.20;;;;;;;;;;4988982;28;20118;-59
2023/05/28 05:29:43;;;;;;;2.80;2.30;;;;;;;;;;4989857;28;20056;-58
2023/05/28 05:32:09;;;;;;;3.07;2.20;;;;;;;;;;4987475;28;20320;-59
2023/05/28 05:34:34;;;;;;;2.65;2.25;;;;;;;;;;4987636;28;20294;-59
2023/05/28 05:36:59;;;;;;;2.83;2.30;;;;;;;;;;5000937;28;20038;-59
2023/05/28 05:39:25;;;;;;;4.00;2.47;;;;;;;;;;4988621;28;20365;-59
2023/05/28 05:41:50;;;;;;;2.55;2.30;;;;;;;;;;4987256;28;20456;-59
2023/05/28 05:44:15;;;;;;;2.67;2.30;;;;;;;;;;4993635;28;20076;-59
2023/05/28 05:46:41;;;;;;;3.63;2.43;;;;;;;;;;4990609;28;20053;-59
2023/05/28 05:49:06;;;;;;;2.57;2.37;;;;;;;;;;5002874;28;20046;-59
2023/05/28 05:51:32;;;;;;;2.50;1.90;;;;;;;;;;4989878;28;20038;-59
2023/05/28 05:53:57;;;;;;;3.00;2.30;;;;;;;;;;4992182;28;20044;-59
2023/05/28 05:56:22;;;;;;;3.03;2.23;;;;;;;;;;4992172;28;20026;-59
2023/05/28 05:58:47;;;;;;;4.80;2.27;;;;;;;;;;5006379;28;20670;-59
2023/05/28 06:01:16;;;;;;;3.20;2.50;;;;;;;;;;4991875;28;20301;-59
2023/05/28 06:03:41;;;;;;;2.97;2.40;;;;;;;;;;4991723;28;20060;-59
2023/05/28 06:06:06;;;;;;;3.10;2.10;;;;;;;;;;4992859;28;20588;-61
2023/05/28 06:08:32;;;;;;;3.30;2.40;;;;;;;;;;4990709;28;20289;-61
2023/05/28 06:10:57;;;;;;;3.05;2.40;;;;;;;;;;4992321;28;20065;-61
2023/05/28 06:13:23;;;;;;;2.85;2.33;;;;;;;;;;4992575;28;20046;-59
2023/05/28 06:15:48;;;;;;;3.67;2.28;;;;;;;;;;4991172;28;20034;-59
2023/05/28 06:18:13;;;;;;;237.87;210.77;;;;;;;;;;4992022;28;20049;-60
2023/05/28 06:20:39;;;;;;;35.80;28.83;;;;;;;;;;4994253;28;20046;-60
2023/05/28 06:23:05;;;;;;;14.73;12.38;;;;;;;;;;4979030;28;20050;-61
2023/05/28 06:25:30;;;;;;;10.35;8.20;;;;;;;;;;4990457;28;20042;-59
2023/05/28 06:27:56;;;;;;;18.63;16.87;;;;;;;;;;4992385;28;20125;-58
2023/05/28 06:30:22;;;;;;;8.35;7.05;;;;;;;;;;4990572;28;20300;-60
2023/05/28 06:32:47;;;;;;;14.87;12.60;;;;;;;;;;4993401;28;20038;-58
2023/05/28 06:35:13;;;;;;;12.13;10.93;;;;;;;;;;5003966;28;20395;-59
2023/05/28 06:37:38;;;;;;;11.90;10.73;;;;;;;;;;4989765;28;21312;-58
2023/05/28 06:40:06;;;;;;;13.10;11.77;;;;;;;;;;4992442;28;20045;-59
2023/05/28 06:42:31;;;;;;;12.57;11.27;;;;;;;;;;4991616;28;20065;-61
2023/05/28 06:44:57;;;;;;;12.80;11.07;;;;;;;;;;4991312;28;22195;-60
2023/05/28 06:47:22;;;;;;;12.30;10.80;;;;;;;;;;4991267;28;20050;-59
2023/05/28 06:49:47;;;;;;;11.75;10.55;;;;;;;;;;4991956;28;21052;-59
2023/05/28 06:52:13;;;;;;;12.03;10.73;;;;;;;;;;4990216;28;20417;-59
2023/05/28 06:54:38;;;;;;;10.93;9.83;;;;;;;;;;4989347;28;20550;-59
2023/05/28 06:57:03;;;;;;;8.37;7.27;;;;;;;;;;4992157;28;20633;-60
2023/05/28 06:59:28;;;;;;;8.07;6.38;;;;;;;;;;4992015;28;20562;-61
2023/05/28 07:01:54;;;;;;;7.80;6.10;;;;;;;;;;4990522;28;20034;-60
2023/05/28 07:04:19;;;;;;;6.27;4.80;;;;;;;;;;4991075;28;20031;-62
2023/05/28 07:06:44;;;;;;;5.47;4.63;;;;;;;;;;5002574;28;20625;-62
2023/05/28 07:09:10;;;;;;;7.03;4.75;;;;;;;;;;4989654;28;20639;-59
2023/05/28 07:11:36;;;;;;;5.00;4.20;;;;;;;;;;4987814;28;20069;-59
2023/05/28 07:14:01;;;;;;;5.63;4.13;;;;;;;;;;4990080;28;20124;-61
2023/05/28 07:16:26;;;;;;;4.87;4.10;;;;;;;;;;4990030;28;20042;-59
2023/05/28 07:18:52;;;;;;;6.33;4.63;;;;;;;;;;4991138;28;20866;-60
2023/05/28 07:21:17;;;;;;;6.53;4.13;;;;;;;;;;5004459;28;20918;-59
2023/05/28 07:23:42;;;;;;;5.38;4.30;;;;;;;;;;5000893;28;20303;-60
2023/05/28 07:26:07;;;;;;;6.10;4.13;;;;;;;;;;4991328;28;20142;-60
2023/05/28 07:28:33;;;;;;;5.60;4.07;;;;;;;;;;4991101;28;20300;-56
2023/05/28 07:30:58;;;;;;;5.60;4.33;;;;;;;;;;4988068;28;20236;-60
2023/05/28 07:33:23;;;;;;;5.30;4.40;;;;;;;;;;4990776;28;20954;-59
2023/05/28 07:35:48;;;;;;;5.97;4.43;;;;;;;;;;4990478;28;20882;-58
2023/05/28 07:38:14;;;;;;;6.53;4.10;;;;;;;;;;4990879;28;20833;-59
2023/05/28 07:40:40;;;;;;;6.22;3.33;;;;;;;;;;4991438;28;20045;-59
2023/05/28 07:43:05;;;;;;;4.63;3.60;;;;;;;;;;4991303;28;20457;-59
2023/05/28 07:45:30;;;;;;;5.32;3.97;;;;;;;;;;4991850;28;20630;-59
2023/05/28 07:47:56;;;;;;;4.90;3.33;;;;;;;;;;4989552;28;20132;-60
2023/05/28 07:50:21;;;;;;;5.20;3.37;;;;;;;;;;4991332;28;20207;-60
2023/05/28 07:52:47;;;;;;;4.45;2.97;;;;;;;;;;4990500;28;20133;-59
2023/05/28 07:55:12;;;;;;;3.70;2.85;;;;;;;;;;4990408;28;20041;-59
2023/05/28 07:57:37;;;;;;;3.20;2.70;;;;;;;;;;4988081;28;20044;-59
2023/05/28 08:00:06;;;;;;;3.53;2.63;;;;;;;;;;4991411;28;20316;-60
2023/05/28 08:02:32;;;;;;;4.27;2.73;;;;;;;;;;4989672;28;20798;-59
2023/05/28 08:04:59;;;;;;;4.47;2.88;;;;;;;;;;4992378;28;20037;-59
2023/05/28 08:07:24;;;;;;;5.30;2.60;;;;;;;;;;4990933;28;20052;-59
2023/05/28 08:09:50;;;;;;;4.95;2.60;;;;;;;;;;4987238;28;20022;-60
2023/05/28 08:12:15;;;;;;;4.88;2.70;;;;;;;;;;4991323;28;20189;-59
2023/05/28 08:14:41;;;;;;;3.43;2.27;;;;;;;;;;4990698;28;20101;-59
2023/05/28 08:17:06;;;;;;;3.60;2.30;;;;;;;;;;4991487;28;20280;-59
2023/05/28 08:19:31;;;;;;;5.23;2.30;;;;;;;;;;4990194;28;20383;-59
2023/05/28 08:21:57;;;;;;;4.07;2.13;;;;;;;;;;4985870;28;20022;-58
2023/05/28 08:24:22;;;;;;;2.95;2.13;;;;;;;;;;5039004;22;20495;-59
2023/05/28 08:26:48;;;;;;;4.38;2.65;;;;;;;;;;4996658;28;20109;-59
2023/05/28 08:29:13;;;;;;;3.57;2.40;;;;;;;;;;4995305;28;20029;-59
2023/05/28 08:31:38;;;;;;;3.20;2.30;;;;;;;;;;4995984;28;20101;-61
2023/05/28 08:34:03;;;;;;;3.07;2.17;;;;;;;;;;4994052;28;20022;-60
2023/05/28 08:36:29;;;;;;;3.92;2.30;;;;;;;;;;4988704;28;20284;-60
2023/05/28 08:38:54;;;;;;;4.78;2.10;;;;;;;;;;4993397;28;21027;-60
2023/05/28 08:43:48;;;;;;;3.03;2.00;;;;;;;;;;4992639;28;20045;-65
2023/05/28 08:46:14;;;;;;;3.67;2.30;;;;;;;;;;4995878;28;20057;-62
2023/05/28 08:48:40;;;;;;;2.63;1.83;;;;;;;;;;5005006;28;20038;-59
2023/05/28 08:51:06;;;;;;;3.65;2.00;;;;;;;;;;4997122;28;20091;-60
2023/05/28 08:53:32;;;;;;;3.05;2.10;;;;;;;;;;4997157;28;21028;-60
2023/05/28 08:55:58;;;;;;;3.97;2.13;;;;;;;;;;4996116;28;20125;-62
2023/05/28 08:58:23;;;;;;;3.40;1.70;;;;;;;;;;5001399;28;20539;-61
2023/05/28 09:00:48;;;;;;;4.13;2.20;;;;;;;;;;4992360;28;20043;-63
2023/05/28 09:03:13;;;;;;;3.30;2.00;;;;;;;;;;4996706;28;20855;-61
2023/05/28 09:05:39;;;;;;;3.20;2.20;;;;;;;;;;4995612;28;20423;-62
2023/05/28 09:08:10;;;;;;;3.10;2.20;;;;;;;;;;4996410;28;20300;-62
2023/05/28 09:10:36;;;;;;;3.83;2.00;;;;;;;;;;4994959;28;20056;-63
2023/05/28 09:13:02;;;;;;;3.67;1.98;;;;;;;;;;4996758;28;20444;-62
2023/05/28 09:15:27;;;;;;;3.80;2.03;;;;;;;;;;4995854;28;20148;-63
2023/05/28 09:17:53;;;;;;;2.55;1.83;;;;;;;;;;4998989;28;20041;-64
2023/05/28 09:20:18;;;;;;;2.60;1.80;;;;;;;;;;5000224;28;20140;-63
2023/05/28 09:22:43;;;;;;;3.45;2.10;;;;;;;;;;5000980;28;20026;-60
2023/05/28 09:25:08;;;;;;;2.60;2.13;;;;;;;;;;5001165;28;20123;-63
2023/05/28 09:27:35;;;;;;;4.57;1.87;;;;;;;;;;4999961;28;20080;-62
2023/05/28 09:30:18;;;;;;;3.75;1.95;;;;;;;;;;5001345;28;20140;-62
2023/05/28 09:32:43;;;;;;;4.45;1.83;;;;;;;;;;4999030;28;20244;-64
2023/05/28 09:35:08;;;;;;;3.27;2.50;;;;;;;;;;5000651;28;20117;-64
2023/05/28 09:37:35;;;;;;;5.32;2.50;;;;;;;;;;4999042;28;20307;-64
2023/05/28 09:40:01;;;;;;;3.42;2.15;;;;;;;;;;5000883;28;20072;-63
2023/05/28 09:42:33;;;;;;;3.60;2.55;;;;;;;;;;5000981;28;20049;-60
2023/05/28 09:44:58;;;;;;;3.22;2.13;;;;;;;;;;5001229;28;20041;-61
2023/05/28 09:47:23;;;;;;;4.07;2.38;;;;;;;;;;5005538;28;20465;-66
2023/05/28 09:49:49;;;;;;;3.57;2.73;;;;;;;;;;4999391;28;20396;-65
2023/05/28 09:52:19;;;;;;;4.00;2.80;;;;;;;;;;4999816;28;20297;-66
2023/05/28 09:54:45;;;;;;;3.67;2.58;;;;;;;;;;5000249;28;20022;-64
2023/05/28 09:57:10;;;;;;;6.10;3.00;;;;;;;;;;5001376;28;20034;-60
2023/05/28 09:59:36;;;;;;;4.70;2.50;;;;;;;;;;4999119;28;20026;-60
2023/05/28 10:02:17;;;;;;;4.10;2.70;;;;;;;;;;4997209;28;21277;-60
2023/05/28 10:04:43;;;;;;;3.50;2.28;;;;;;;;;;5005836;28;20030;-61
2023/05/28 10:07:08;;;;;;;4.13;2.55;;;;;;;;;;4999393;28;20060;-65
2023/05/28 10:09:33;;;;;;;2.93;2.20;;;;;;;;;;5005312;28;20144;-64
2023/05/28 10:12:07;;;;;;;3.67;2.50;;;;;;;;;;4999580;28;20417;-61
2023/05/28 10:14:32;;;;;;;4.15;2.17;;;;;;;;;;4999444;28;20296;-62
2023/05/28 10:16:58;;;;;;;4.33;2.10;;;;;;;;;;4999219;28;20044;-61
2023/05/28 10:19:23;;;;;;;2.90;2.30;;;;;;;;;;5000258;28;20320;-64
2023/05/28 10:21:49;;;;;;;5.10;2.67;;;;;;;;;;4999420;28;20033;-66
2023/05/28 10:24:14;;;;;;;6.10;2.57;;;;;;;;;;5004576;28;20034;-64
2023/05/28 10:26:39;;;;;;;4.00;2.50;;;;;;;;;;5007559;28;20037;-63
2023/05/28 10:29:08;;;;;;;4.15;2.28;;;;;;;;;;4981860;28;20139;-66
2023/05/28 10:31:33;;;;;;;2.90;2.30;;;;;;;;;;5000375;28;20124;-64
2023/05/28 10:33:58;;;;;;;5.18;3.00;;;;;;;;;;4999956;28;20108;-63
2023/05/28 10:36:24;;;;;;;4.50;3.03;;;;;;;;;;5000158;28;20044;-65
2023/05/28 10:38:52;;;;;;;4.53;2.50;;;;;;;;;;4999534;28;20370;-65
2023/05/28 10:41:18;;;;;;;3.60;2.70;;;;;;;;;;4998895;28;20038;-67
2023/05/28 10:43:45;;;;;;;4.13;2.63;;;;;;;;;;4998313;28;20045;-67
2023/05/28 10:46:25;;;;;;;4.30;2.80;;;;;;;;;;4997473;28;20515;-62
2023/05/28 10:49:12;;;;;;;5.07;3.30;;;;;;;;;;4999519;28;20132;-60
2023/05/28 10:51:53;;;;;;;5.97;3.13;;;;;;;;;;4998171;28;20588;-60
2023/05/28 10:54:37;;;;;;;3.95;2.67;;;;;;;;;;4999323;28;20067;-62
2023/05/28 10:57:09;;;;;;;5.03;3.10;;;;;;;;;;4999300;28;20564;-59
2023/05/28 10:59:47;;;;;;;4.80;3.30;;;;;;;;;;4997568;28;20049;-62
2023/05/28 11:02:15;;;;;;;5.55;2.80;;;;;;;;;;4998287;28;20357;-61
2023/05/28 11:04:41;;;;;;;4.93;2.85;;;;;;;;;;5002359;28;20057;-61
2023/05/28 11:07:06;;;;;;;4.00;3.00;;;;;;;;;;4997647;28;20054;-62
2023/05/28 11:09:31;;;;;;;6.03;2.92;;;;;;;;;;4995898;28;20193;-62
2023/05/28 11:12:00;;;;;;;3.65;2.70;;;;;;;;;;4998866;28;20033;-61
2023/05/28 11:14:29;;;;;;;4.22;2.90;;;;;;;;;;4998902;28;20045;-61
2023/05/28 11:16:54;;;;;;;5.40;3.17;;;;;;;;;;4998665;28;20046;-62
2023/05/28 11:19:19;;;;;;;4.32;3.05;;;;;;;;;;4997131;28;20037;-61
2023/05/28 11:21:55;;;;;;;4.22;3.03;;;;;;;;;;5003527;28;20046;-62
2023/05/28 11:24:20;;;;;;;4.78;3.30;;;;;;;;;;4998357;28;20125;-62
2023/05/28 11:26:46;;;;;;;4.28;3.35;;;;;;;;;;4999005;28;20056;-62
2023/05/28 11:29:12;;;;;;;5.85;3.67;;;;;;;;;;4998878;28;20776;-62
2023/05/28 11:31:41;;;;;;;5.35;3.28;;;;;;;;;;4999040;28;20038;-63
2023/05/28 11:34:06;;;;;;;4.22;3.47;;;;;;;;;;4996190;28;20034;-70
2023/05/28 11:36:37;;;;;;;6.00;3.75;;;;;;;;;;5000687;28;20041;-62
2023/05/28 11:39:02;;;;;;;5.95;3.70;;;;;;;;;;5002081;28;20042;-68
2023/05/28 11:41:28;;;;;;;3.85;3.45;;;;;;;;;;5003252;28;20041;-65
2023/05/28 11:43:53;;;;;;;4.47;3.75;;;;;;;;;;5003134;28;20448;-73
2023/05/28 11:46:21;;;;;;;5.70;3.70;;;;;;;;;;5017106;28;20050;-69
2023/05/28 11:48:46;;;;;;;4.47;3.70;;;;;;;;;;5009034;28;20288;-66
2023/05/28 11:51:11;;;;;;;4.87;3.47;;;;;;;;;;5000754;28;20034;-67
2023/05/28 11:53:37;;;;;;;4.70;3.70;;;;;;;;;;5000805;28;20375;-71
2023/05/28 11:56:03;;;;;;;4.15;3.55;;;;;;;;;;5005998;28;20173;-63
2023/05/28 11:58:30;;;;;;;5.50;3.53;;;;;;;;;;4998385;28;20370;-62
2023/05/28 12:00:55;;;;;;;4.20;3.63;;;;;;;;;;4997971;28;20095;-63
2023/05/28 12:03:20;;;;;;;5.28;3.95;;;;;;;;;;5004970;28;20404;-64
2023/05/28 12:05:46;;;;;;;5.13;4.00;;;;;;;;;;5016851;23;20054;-62
2023/05/28 12:08:11;;;;;;;4.72;3.97;;;;;;;;;;4995714;28;20504;-69
2023/05/28 12:10:36;;;;;;;4.60;3.90;;;;;;;;;;4986226;28;20038;-61
2023/05/28 12:13:02;;;;;;;5.10;4.03;;;;;;;;;;5001916;22;20141;-59
2023/05/28 12:15:27;;;;;;;4.60;3.80;;;;;;;;;;4988520;28;20822;-59
2023/05/28 12:17:53;;;;;;;5.13;3.97;;;;;;;;;;4996210;28;20293;-63
2023/05/28 12:20:18;;;;;;;4.55;4.03;;;;;;;;;;4988060;28;20350;-59
2023/05/28 12:22:44;;;;;;;4.80;4.30;;;;;;;;;;4986587;28;20054;-66
2023/05/28 12:25:09;;;;;;;5.15;4.32;;;;;;;;;;4986820;28;20607;-61
2023/05/28 12:27:35;;;;;;;5.03;3.92;;;;;;;;;;4965758;28;20053;-60
2023/05/28 12:30:00;;;;;;;5.43;4.00;;;;;;;;;;4983272;28;20444;-61
2023/05/28 12:32:26;;;;;;;4.90;3.77;;;;;;;;;;4986205;28;20501;-59
2023/05/28 12:34:53;;;;;;;6.35;4.38;;;;;;;;;;4988204;28;20370;-62
2023/05/28 12:37:18;;;;;;;6.20;4.28;;;;;;;;;;4991916;28;20069;-62
2023/05/28 12:39:45;;;;;;;6.10;4.20;;;;;;;;;;4995813;28;20050;-64
2023/05/28 12:42:10;;;;;;;5.90;4.07;;;;;;;;;;4996285;28;20049;-59
2023/05/28 12:44:35;;;;;;;5.05;4.03;;;;;;;;;;4997239;28;20703;-63
2023/05/28 12:47:00;;;;;;;5.40;4.13;;;;;;;;;;4997560;28;20046;-62
2023/05/28 12:49:26;;;;;;;5.65;4.10;;;;;;;;;;4985393;28;20642;-61
2023/05/28 12:51:51;;;;;;;4.37;3.97;;;;;;;;;;5000079;28;20025;-62
2023/05/28 12:54:16;;;;;;;5.17;3.77;;;;;;;;;;5005833;28;21032;-62
2023/05/28 12:56:41;;;;;;;6.73;3.80;;;;;;;;;;4995053;28;20501;-62
2023/05/28 12:59:08;;;;;;;4.35;3.95;;;;;;;;;;4985586;28;20065;-63
2023/05/28 13:01:34;;;;;;;4.80;3.97;;;;;;;;;;4994333;28;20039;-63
2023/05/28 13:03:59;;;;;;;4.10;3.58;;;;;;;;;;4985352;28;20041;-60
2023/05/28 13:06:24;;;;;;;5.03;4.53;;;;;;;;;;4990066;28;20118;-65
2023/05/28 13:08:50;;;;;;;6.10;4.10;;;;;;;;;;4990470;28;20276;-61
2023/05/28 13:11:15;;;;;;;4.75;3.90;;;;;;;;;;5015571;28;20054;-62
2023/05/28 13:13:40;;;;;;;4.40;3.60;;;;;;;;;;4987869;28;20057;-59
2023/05/28 13:16:05;;;;;;;6.03;4.32;;;;;;;;;;4983495;28;20699;-60
2023/05/28 13:18:31;;;;;;;4.30;3.78;;;;;;;;;;4993660;28;20116;-60
2023/05/28 13:20:56;;;;;;;5.13;3.90;;;;;;;;;;4993335;28;20467;-60
2023/05/28 13:23:21;;;;;;;5.47;3.80;;;;;;;;;;4983363;28;20345;-63
2023/05/28 13:25:46;;;;;;;4.33;3.60;;;;;;;;;;4991936;28;20117;-65
2023/05/28 13:28:12;;;;;;;4.20;3.80;;;;;;;;;;4994617;28;20281;-65
2023/05/28 13:30:37;;;;;;;5.82;4.15;;;;;;;;;;4991305;28;20033;-64
2023/05/28 13:33:02;;;;;;;4.70;3.63;;;;;;;;;;4985947;28;20494;-60
2023/05/28 13:35:28;;;;;;;4.20;3.80;;;;;;;;;;5002708;28;20280;-65
2023/05/28 13:37:55;;;;;;;5.57;4.17;;;;;;;;;;4989397;28;20030;-63
2023/05/28 13:40:21;;;;;;;5.20;4.05;;;;;;;;;;4987510;28;20039;-64
2023/05/28 13:42:48;;;;;;;4.75;3.72;;;;;;;;;;4978983;28;20041;-60
2023/05/28 13:45:14;;;;;;;4.32;3.83;;;;;;;;;;4991475;28;20042;-64
2023/05/28 13:47:39;;;;;;;5.38;4.18;;;;;;;;;;4983413;28;20100;-65
2023/05/28 13:50:05;;;;;;;4.80;4.30;;;;;;;;;;4990826;28;20043;-65
2023/05/28 13:52:30;;;;;;;4.55;4.15;;;;;;;;;;4983849;28;20051;-60
2023/05/28 13:54:56;;;;;;;6.63;4.40;;;;;;;;;;4989643;28;20034;-64
2023/05/28 13:57:21;;;;;;;5.72;4.25;;;;;;;;;;4987640;28;20026;-58
2023/05/28 13:59:46;;;;;;;4.77;3.80;;;;;;;;;;5003961;28;20038;-65
2023/05/28 14:02:12;;;;;;;5.10;4.20;;;;;;;;;;4990200;28;20177;-66
2023/05/28 14:04:37;;;;;;;6.80;4.70;;;;;;;;;;4990765;28;20034;-62
2023/05/28 14:07:02;;;;;;;4.72;4.22;;;;;;;;;;4994024;28;20057;-66
2023/05/28 14:09:27;;;;;;;5.70;4.33;;;;;;;;;;4986599;28;20199;-63
2023/05/28 14:11:53;;;;;;;5.05;4.55;;;;;;;;;;5004249;28;20062;-67
2023/05/28 14:14:18;;;;;;;4.90;4.40;;;;;;;;;;4988656;28;20042;-65
2023/05/28 14:16:43;;;;;;;4.90;4.23;;;;;;;;;;5005283;28;20480;-64
2023/05/28 14:19:08;;;;;;;5.63;4.27;;;;;;;;;;5016185;28;20458;-66
2023/05/28 14:21:35;;;;;;;8.90;4.73;;;;;;;;;;4987201;28;20493;-65
2023/05/28 14:24:00;;;;;;;5.18;4.30;;;;;;;;;;4995772;28;20327;-64
2023/05/28 14:26:25;;;;;;;5.73;4.00;;;;;;;;;;4991564;28;20050;-62
2023/05/28 14:28:51;;;;;;;5.05;4.13;;;;;;;;;;4988175;28;20064;-62
2023/05/28 14:31:16;;;;;;;4.13;3.50;;;;;;;;;;4999735;28;20473;-61
2023/05/28 14:33:41;;;;;;;4.57;4.07;;;;;;;;;;4995060;28;20133;-64
2023/05/28 14:36:06;;;;;;;5.10;3.90;;;;;;;;;;5009163;28;20481;-61
2023/05/28 14:38:32;;;;;;;4.15;3.33;;;;;;;;;;5013151;28;20061;-61